sensor_id;sensor_type;location;lat;lon;timestamp;P1;durP1;ratioP1;P2;durP2;ratioP2
8219;SDS011;4151;51.110;7.020;2022-10-04T00:01:48;11.17;;;6.97;;
8219;SDS011;4151;51.110;7.020;2022-10-04T00:06:50;12.87;;;6.53;;
8219;SDS011;4151;51.110;7.020;2022-10-04T00:09:39;12.97;;;6.77;;
8219;SDS011;4151;51.110;7.020;2022-10-04T00:12:17;14.00;;;6.83;;
8219;SDS011;4151;51.110;7.020;2022-10-04T00:15:04;13.43;;;6.70;;
8219;SDS011;4151;51.110;7.020;2022-10-04T00:17:43;25.93;;;7.20;;
8219;SDS011;4151;51.110;7.020;2022-10-04T00:25:59;14.83;;;7.10;;
8219;SDS011;4151;51.110;7.020;2022-10-04T00:31:10;11.33;;;6.50;;
8219;SDS011;4151;51.110;7.020;2022-10-04T00:39:03;13.17;;;5.90;;
8219;SDS011;4151;51.110;7.020;2022-10-04T00:46:57;16.90;;;7.10;;
8219;SDS011;4151;51.110;7.020;2022-10-04T00:49:25;15.13;;;6.70;;
8219;SDS011;4151;51.110;7.020;2022-10-04T00:52:05;11.63;;;5.97;;
8219;SDS011;4151;51.110;7.020;2022-10-04T00:54:43;8.00;;;6.03;;
8219;SDS011;4151;51.110;7.020;2022-10-04T00:57:16;9.00;;;5.90;;
8219;SDS011;4151;51.110;7.020;2022-10-04T00:59:57;13.00;;;6.97;;
8219;SDS011;4151;51.110;7.020;2022-10-04T01:02:35;13.10;;;5.83;;
8219;SDS011;4151;51.110;7.020;2022-10-04T01:05:51;15.53;;;7.10;;
8219;SDS011;4151;51.110;7.020;2022-10-04T01:08:11;13.03;;;6.20;;
8219;SDS011;4151;51.110;7.020;2022-10-04T01:10:46;10.77;;;6.50;;
8219;SDS011;4151;51.110;7.020;2022-10-04T01:13:27;12.40;;;6.50;;
8219;SDS011;4151;51.110;7.020;2022-10-04T01:16:21;14.53;;;6.97;;
8219;SDS011;4151;51.110;7.020;2022-10-04T01:18:49;15.43;;;6.83;;
8219;SDS011;4151;51.110;7.020;2022-10-04T01:29:09;14.83;;;6.33;;
8219;SDS011;4151;51.110;7.020;2022-10-04T01:31:48;19.50;;;6.93;;
8219;SDS011;4151;51.110;7.020;2022-10-04T01:34:16;17.50;;;6.60;;
8219;SDS011;4151;51.110;7.020;2022-10-04T01:36:51;13.30;;;6.30;;
8219;SDS011;4151;51.110;7.020;2022-10-04T01:39:20;12.93;;;6.50;;
8219;SDS011;4151;51.110;7.020;2022-10-04T01:47:13;16.50;;;6.00;;
8219;SDS011;4151;51.110;7.020;2022-10-04T01:49:43;13.90;;;6.67;;
8219;SDS011;4151;51.110;7.020;2022-10-04T01:52:20;8.70;;;5.83;;
8219;SDS011;4151;51.110;7.020;2022-10-04T01:54:52;11.90;;;5.77;;
8219;SDS011;4151;51.110;7.020;2022-10-04T01:57:32;9.57;;;6.57;;
8219;SDS011;4151;51.110;7.020;2022-10-04T02:00:06;18.43;;;5.97;;
8219;SDS011;4151;51.110;7.020;2022-10-04T02:02:45;19.77;;;5.90;;
8219;SDS011;4151;51.110;7.020;2022-10-04T02:05:26;11.77;;;5.90;;
8219;SDS011;4151;51.110;7.020;2022-10-04T02:08:04;14.47;;;5.10;;
8219;SDS011;4151;51.110;7.020;2022-10-04T02:10:33;16.13;;;6.17;;
8219;SDS011;4151;51.110;7.020;2022-10-04T02:13:00;11.30;;;6.20;;
8219;SDS011;4151;51.110;7.020;2022-10-04T02:15:29;9.80;;;6.07;;
8219;SDS011;4151;51.110;7.020;2022-10-04T02:17:59;9.47;;;5.53;;
8219;SDS011;4151;51.110;7.020;2022-10-04T02:20:25;9.63;;;5.70;;
8219;SDS011;4151;51.110;7.020;2022-10-04T02:22:56;15.50;;;6.93;;
8219;SDS011;4151;51.110;7.020;2022-10-04T02:25:27;14.10;;;6.27;;
8219;SDS011;4151;51.110;7.020;2022-10-04T02:27:53;10.70;;;6.13;;
8219;SDS011;4151;51.110;7.020;2022-10-04T02:30:20;10.30;;;6.10;;
8219;SDS011;4151;51.110;7.020;2022-10-04T02:32:46;9.13;;;5.60;;
8219;SDS011;4151;51.110;7.020;2022-10-04T02:35:31;11.50;;;6.40;;
8219;SDS011;4151;51.110;7.020;2022-10-04T02:40:47;11.03;;;6.47;;
8219;SDS011;4151;51.110;7.020;2022-10-04T02:43:38;11.87;;;6.07;;
8219;SDS011;4151;51.110;7.020;2022-10-04T02:46:25;10.30;;;6.07;;
8219;SDS011;4151;51.110;7.020;2022-10-04T02:48:55;10.57;;;6.13;;
8219;SDS011;4151;51.110;7.020;2022-10-04T02:56:36;13.23;;;6.43;;
8219;SDS011;4151;51.110;7.020;2022-10-04T02:59:02;9.13;;;5.53;;
8219;SDS011;4151;51.110;7.020;2022-10-04T03:01:39;14.50;;;7.33;;
8219;SDS011;4151;51.110;7.020;2022-10-04T03:04:11;15.10;;;6.80;;
8219;SDS011;4151;51.110;7.020;2022-10-04T03:06:39;12.27;;;5.60;;
8219;SDS011;4151;51.110;7.020;2022-10-04T03:09:06;13.60;;;5.67;;
8219;SDS011;4151;51.110;7.020;2022-10-04T03:11:33;14.57;;;6.67;;
8219;SDS011;4151;51.110;7.020;2022-10-04T03:14:00;12.53;;;6.83;;
8219;SDS011;4151;51.110;7.020;2022-10-04T03:16:36;12.07;;;6.53;;
8219;SDS011;4151;51.110;7.020;2022-10-04T03:19:03;12.43;;;6.50;;
8219;SDS011;4151;51.110;7.020;2022-10-04T03:21:30;12.43;;;6.50;;
8219;SDS011;4151;51.110;7.020;2022-10-04T03:23:57;12.53;;;5.33;;
8219;SDS011;4151;51.110;7.020;2022-10-04T03:27:07;8.80;;;5.70;;
8219;SDS011;4151;51.110;7.020;2022-10-04T03:29:16;14.90;;;6.53;;
8219;SDS011;4151;51.110;7.020;2022-10-04T03:31:43;10.90;;;6.37;;
8219;SDS011;4151;51.110;7.020;2022-10-04T03:34:15;13.13;;;6.50;;
8219;SDS011;4151;51.110;7.020;2022-10-04T03:36:44;10.17;;;6.30;;
8219;SDS011;4151;51.110;7.020;2022-10-04T03:39:25;16.70;;;6.90;;
8219;SDS011;4151;51.110;7.020;2022-10-04T03:41:54;14.43;;;6.70;;
8219;SDS011;4151;51.110;7.020;2022-10-04T03:44:22;24.63;;;11.23;;
8219;SDS011;4151;51.110;7.020;2022-10-04T03:46:48;23.90;;;9.63;;
8219;SDS011;4151;51.110;7.020;2022-10-04T03:49:17;14.23;;;5.40;;
8219;SDS011;4151;51.110;7.020;2022-10-04T03:51:54;9.63;;;5.80;;
8219;SDS011;4151;51.110;7.020;2022-10-04T03:54:21;11.50;;;6.27;;
8219;SDS011;4151;51.110;7.020;2022-10-04T03:56:52;9.57;;;6.17;;
8219;SDS011;4151;51.110;7.020;2022-10-04T03:59:18;13.90;;;5.40;;
8219;SDS011;4151;51.110;7.020;2022-10-04T04:04:44;13.50;;;6.40;;
8219;SDS011;4151;51.110;7.020;2022-10-04T04:09:55;15.43;;;6.20;;
8219;SDS011;4151;51.110;7.020;2022-10-04T04:12:38;14.93;;;5.43;;
8219;SDS011;4151;51.110;7.020;2022-10-04T04:15:09;14.23;;;7.00;;
8219;SDS011;4151;51.110;7.020;2022-10-04T04:17:40;15.53;;;6.27;;
8219;SDS011;4151;51.110;7.020;2022-10-04T04:20:50;17.60;;;6.70;;
8219;SDS011;4151;51.110;7.020;2022-10-04T04:25:24;8.83;;;5.30;;
8219;SDS011;4151;51.110;7.020;2022-10-04T04:27:52;17.70;;;7.23;;
8219;SDS011;4151;51.110;7.020;2022-10-04T04:30:29;15.93;;;8.00;;
8219;SDS011;4151;51.110;7.020;2022-10-04T04:32:56;16.93;;;6.93;;
8219;SDS011;4151;51.110;7.020;2022-10-04T04:35:31;10.33;;;6.53;;
8219;SDS011;4151;51.110;7.020;2022-10-04T04:38:16;13.83;;;5.80;;
8219;SDS011;4151;51.110;7.020;2022-10-04T04:40:45;11.93;;;6.33;;
8219;SDS011;4151;51.110;7.020;2022-10-04T04:43:13;13.60;;;6.30;;
8219;SDS011;4151;51.110;7.020;2022-10-04T04:45:43;13.20;;;6.60;;
8219;SDS011;4151;51.110;7.020;2022-10-04T04:48:13;11.40;;;6.23;;
8219;SDS011;4151;51.110;7.020;2022-10-04T04:50:40;17.37;;;5.97;;
8219;SDS011;4151;51.110;7.020;2022-10-04T04:55:56;17.53;;;6.90;;
8219;SDS011;4151;51.110;7.020;2022-10-04T04:58:24;17.00;;;5.43;;
8219;SDS011;4151;51.110;7.020;2022-10-04T05:01:06;12.77;;;6.00;;
8219;SDS011;4151;51.110;7.020;2022-10-04T05:03:39;11.07;;;4.97;;
8219;SDS011;4151;51.110;7.020;2022-10-04T05:06:17;11.20;;;6.07;;
8219;SDS011;4151;51.110;7.020;2022-10-04T05:08:49;14.80;;;5.53;;
8219;SDS011;4151;51.110;7.020;2022-10-04T05:11:15;12.03;;;5.67;;
8219;SDS011;4151;51.110;7.020;2022-10-04T05:13:48;19.53;;;4.97;;
8219;SDS011;4151;51.110;7.020;2022-10-04T05:16:26;15.97;;;6.73;;
8219;SDS011;4151;51.110;7.020;2022-10-04T05:18:56;23.60;;;6.07;;
8219;SDS011;4151;51.110;7.020;2022-10-04T05:21:29;15.47;;;7.60;;
8219;SDS011;4151;51.110;7.020;2022-10-04T05:23:57;12.73;;;6.23;;
8219;SDS011;4151;51.110;7.020;2022-10-04T05:26:32;13.43;;;6.37;;
8219;SDS011;4151;51.110;7.020;2022-10-04T05:28:59;11.07;;;6.20;;
8219;SDS011;4151;51.110;7.020;2022-10-04T05:31:47;13.93;;;6.50;;
8219;SDS011;4151;51.110;7.020;2022-10-04T05:34:35;20.30;;;6.60;;
8219;SDS011;4151;51.110;7.020;2022-10-04T05:37:08;17.00;;;5.70;;
8219;SDS011;4151;51.110;7.020;2022-10-04T05:39:58;16.97;;;6.10;;
8219;SDS011;4151;51.110;7.020;2022-10-04T05:42:38;10.80;;;6.30;;
8219;SDS011;4151;51.110;7.020;2022-10-04T05:45:19;11.97;;;6.20;;
8219;SDS011;4151;51.110;7.020;2022-10-04T05:47:50;14.73;;;5.40;;
8219;SDS011;4151;51.110;7.020;2022-10-04T05:50:39;16.40;;;5.93;;
8219;SDS011;4151;51.110;7.020;2022-10-04T05:58:25;13.93;;;5.63;;
8219;SDS011;4151;51.110;7.020;2022-10-04T06:06:30;10.80;;;5.90;;
8219;SDS011;4151;51.110;7.020;2022-10-04T06:12:21;15.73;;;6.50;;
8219;SDS011;4151;51.110;7.020;2022-10-04T06:23:26;14.83;;;6.77;;
8219;SDS011;4151;51.110;7.020;2022-10-04T06:26:03;16.43;;;7.30;;
8219;SDS011;4151;51.110;7.020;2022-10-04T06:28:44;12.63;;;5.90;;
8219;SDS011;4151;51.110;7.020;2022-10-04T06:44:29;19.20;;;8.00;;
8219;SDS011;4151;51.110;7.020;2022-10-04T06:49:59;15.07;;;6.83;;
8219;SDS011;4151;51.110;7.020;2022-10-04T07:03:36;13.43;;;6.10;;
8219;SDS011;4151;51.110;7.020;2022-10-04T07:06:09;15.57;;;5.93;;
8219;SDS011;4151;51.110;7.020;2022-10-04T07:14:05;13.93;;;5.47;;
8219;SDS011;4151;51.110;7.020;2022-10-04T07:16:56;10.80;;;5.00;;
8219;SDS011;4151;51.110;7.020;2022-10-04T07:27:00;12.60;;;4.90;;
8219;SDS011;4151;51.110;7.020;2022-10-04T07:29:32;8.33;;;5.00;;
8219;SDS011;4151;51.110;7.020;2022-10-04T07:34:38;10.53;;;5.00;;
8219;SDS011;4151;51.110;7.020;2022-10-04T07:37:09;15.27;;;5.50;;
8219;SDS011;4151;51.110;7.020;2022-10-04T07:39:55;14.90;;;4.80;;
8219;SDS011;4151;51.110;7.020;2022-10-04T07:42:31;12.63;;;4.57;;
8219;SDS011;4151;51.110;7.020;2022-10-04T07:48:00;11.77;;;4.77;;
8219;SDS011;4151;51.110;7.020;2022-10-04T07:53:47;12.70;;;5.10;;
8219;SDS011;4151;51.110;7.020;2022-10-04T07:59:03;8.60;;;5.00;;
8219;SDS011;4151;51.110;7.020;2022-10-04T08:01:38;10.77;;;5.20;;
8219;SDS011;4151;51.110;7.020;2022-10-04T08:04:16;15.80;;;5.37;;
8219;SDS011;4151;51.110;7.020;2022-10-04T08:06:59;9.07;;;5.40;;
8219;SDS011;4151;51.110;7.020;2022-10-04T08:09:36;14.10;;;5.27;;
8219;SDS011;4151;51.110;7.020;2022-10-04T08:12:28;7.03;;;5.00;;
8219;SDS011;4151;51.110;7.020;2022-10-04T08:25:18;11.40;;;4.90;;
8219;SDS011;4151;51.110;7.020;2022-10-04T08:28:01;7.17;;;4.90;;
8219;SDS011;4151;51.110;7.020;2022-10-04T08:36:58;9.70;;;4.83;;
8219;SDS011;4151;51.110;7.020;2022-10-04T08:48:11;13.80;;;5.30;;
8219;SDS011;4151;51.110;7.020;2022-10-04T08:51:01;9.40;;;4.47;;
8219;SDS011;4151;51.110;7.020;2022-10-04T09:11:10;12.53;;;5.00;;
8219;SDS011;4151;51.110;7.020;2022-10-04T09:13:51;12.57;;;6.23;;
8219;SDS011;4151;51.110;7.020;2022-10-04T09:35:44;7.93;;;3.83;;
8219;SDS011;4151;51.110;7.020;2022-10-04T09:38:21;7.10;;;3.47;;
8219;SDS011;4151;51.110;7.020;2022-10-04T09:53:04;7.00;;;4.03;;
8219;SDS011;4151;51.110;7.020;2022-10-04T10:01:57;9.27;;;4.20;;
8219;SDS011;4151;51.110;7.020;2022-10-04T10:04:44;9.33;;;3.37;;
8219;SDS011;4151;51.110;7.020;2022-10-04T10:07:33;8.47;;;3.63;;
8219;SDS011;4151;51.110;7.020;2022-10-04T10:13:23;6.97;;;4.53;;
8219;SDS011;4151;51.110;7.020;2022-10-04T10:27:07;10.73;;;4.10;;
8219;SDS011;4151;51.110;7.020;2022-10-04T10:30:02;9.70;;;3.67;;
8219;SDS011;4151;51.110;7.020;2022-10-04T10:41:32;7.83;;;3.63;;
8219;SDS011;4151;51.110;7.020;2022-10-04T10:47:11;12.20;;;3.47;;
8219;SDS011;4151;51.110;7.020;2022-10-04T11:09:38;7.97;;;3.20;;
8219;SDS011;4151;51.110;7.020;2022-10-04T11:15:32;3.93;;;2.60;;
8219;SDS011;4151;51.110;7.020;2022-10-04T11:27:21;5.83;;;3.30;;
8219;SDS011;4151;51.110;7.020;2022-10-04T11:38:27;12.23;;;3.37;;
8219;SDS011;4151;51.110;7.020;2022-10-04T11:52:54;4.93;;;2.63;;
8219;SDS011;4151;51.110;7.020;2022-10-04T12:01:18;5.83;;;3.03;;
8219;SDS011;4151;51.110;7.020;2022-10-04T12:15:20;4.83;;;2.80;;
8219;SDS011;4151;51.110;7.020;2022-10-04T12:20:57;6.40;;;3.10;;
8219;SDS011;4151;51.110;7.020;2022-10-04T12:32:11;4.17;;;2.70;;
8219;SDS011;4151;51.110;7.020;2022-10-04T12:45:26;7.83;;;3.07;;
8219;SDS011;4151;51.110;7.020;2022-10-04T12:53:23;5.83;;;2.57;;
8219;SDS011;4151;51.110;7.020;2022-10-04T13:05:18;13.93;;;3.03;;
8219;SDS011;4151;51.110;7.020;2022-10-04T13:16:02;2.40;;;1.97;;
8219;SDS011;4151;51.110;7.020;2022-10-04T13:24:18;13.20;;;2.70;;
8219;SDS011;4151;51.110;7.020;2022-10-04T13:26:53;5.53;;;3.03;;
8219;SDS011;4151;51.110;7.020;2022-10-04T13:29:34;6.07;;;2.53;;
8219;SDS011;4151;51.110;7.020;2022-10-04T13:32:02;4.10;;;2.27;;
8219;SDS011;4151;51.110;7.020;2022-10-04T13:34:39;5.10;;;2.87;;
8219;SDS011;4151;51.110;7.020;2022-10-04T13:43:19;4.10;;;2.30;;
8219;SDS011;4151;51.110;7.020;2022-10-04T13:46:18;6.27;;;2.83;;
8219;SDS011;4151;51.110;7.020;2022-10-04T13:54:57;4.53;;;2.63;;
8219;SDS011;4151;51.110;7.020;2022-10-04T13:57:49;7.40;;;2.50;;
8219;SDS011;4151;51.110;7.020;2022-10-04T14:00:19;3.77;;;2.30;;
8219;SDS011;4151;51.110;7.020;2022-10-04T14:11:55;6.50;;;2.73;;
8219;SDS011;4151;51.110;7.020;2022-10-04T14:17:24;7.53;;;2.60;;
8219;SDS011;4151;51.110;7.020;2022-10-04T14:22:53;4.03;;;2.47;;
8219;SDS011;4151;51.110;7.020;2022-10-04T14:25:48;7.30;;;2.50;;
8219;SDS011;4151;51.110;7.020;2022-10-04T14:42:36;5.00;;;2.20;;
8219;SDS011;4151;51.110;7.020;2022-10-04T14:45:31;4.20;;;2.07;;
8219;SDS011;4151;51.110;7.020;2022-10-04T15:01:31;4.87;;;2.37;;
8219;SDS011;4151;51.110;7.020;2022-10-04T15:06:47;7.20;;;2.00;;
8219;SDS011;4151;51.110;7.020;2022-10-04T15:18:35;4.17;;;2.60;;
8219;SDS011;4151;51.110;7.020;2022-10-04T15:24:12;8.37;;;2.83;;
8219;SDS011;4151;51.110;7.020;2022-10-04T15:29:55;3.37;;;2.30;;
8219;SDS011;4151;51.110;7.020;2022-10-04T15:40:28;5.23;;;2.40;;
8219;SDS011;4151;51.110;7.020;2022-10-04T15:43:31;6.37;;;2.70;;
8219;SDS011;4151;51.110;7.020;2022-10-04T15:54:44;8.30;;;2.80;;
8219;SDS011;4151;51.110;7.020;2022-10-04T16:00:11;4.27;;;2.40;;
8219;SDS011;4151;51.110;7.020;2022-10-04T16:08:44;10.70;;;2.87;;
8219;SDS011;4151;51.110;7.020;2022-10-04T16:14:27;5.97;;;3.17;;
8219;SDS011;4151;51.110;7.020;2022-10-04T16:17:08;8.00;;;2.50;;
8219;SDS011;4151;51.110;7.020;2022-10-04T16:23:40;4.20;;;2.63;;
8219;SDS011;4151;51.110;7.020;2022-10-04T16:25:48;4.93;;;2.90;;
8219;SDS011;4151;51.110;7.020;2022-10-04T16:31:21;10.60;;;2.90;;
8219;SDS011;4151;51.110;7.020;2022-10-04T16:36:57;11.87;;;3.37;;
8219;SDS011;4151;51.110;7.020;2022-10-04T16:42:33;5.90;;;3.00;;
8219;SDS011;4151;51.110;7.020;2022-10-04T16:51:27;6.97;;;3.30;;
8219;SDS011;4151;51.110;7.020;2022-10-04T16:56:31;8.27;;;3.47;;
8219;SDS011;4151;51.110;7.020;2022-10-04T16:59:42;10.70;;;4.10;;
8219;SDS011;4151;51.110;7.020;2022-10-04T17:02:09;5.87;;;3.97;;
8219;SDS011;4151;51.110;7.020;2022-10-04T17:10:11;6.17;;;3.63;;
8219;SDS011;4151;51.110;7.020;2022-10-04T17:23:33;9.80;;;4.13;;
8219;SDS011;4151;51.110;7.020;2022-10-04T17:47:33;15.63;;;5.27;;
8219;SDS011;4151;51.110;7.020;2022-10-04T17:50:27;7.70;;;5.00;;
8219;SDS011;4151;51.110;7.020;2022-10-04T17:53:19;8.10;;;4.80;;
8219;SDS011;4151;51.110;7.020;2022-10-04T17:56:07;10.00;;;4.90;;
8219;SDS011;4151;51.110;7.020;2022-10-04T18:09:41;13.33;;;7.00;;
8219;SDS011;4151;51.110;7.020;2022-10-04T18:12:11;13.17;;;5.83;;
8219;SDS011;4151;51.110;7.020;2022-10-04T18:15:02;8.33;;;5.70;;
8219;SDS011;4151;51.110;7.020;2022-10-04T18:20:18;8.33;;;5.33;;
8219;SDS011;4151;51.110;7.020;2022-10-04T18:25:40;20.33;;;5.63;;
8219;SDS011;4151;51.110;7.020;2022-10-04T18:30:32;11.80;;;5.67;;
8219;SDS011;4151;51.110;7.020;2022-10-04T18:33:16;8.40;;;5.90;;
8219;SDS011;4151;51.110;7.020;2022-10-04T18:35:50;9.27;;;5.40;;
8219;SDS011;4151;51.110;7.020;2022-10-04T18:38:28;9.00;;;5.17;;
8219;SDS011;4151;51.110;7.020;2022-10-04T18:41:14;6.20;;;4.50;;
8219;SDS011;4151;51.110;7.020;2022-10-04T18:46:22;10.83;;;5.13;;
8219;SDS011;4151;51.110;7.020;2022-10-04T18:52:15;19.20;;;5.53;;
8219;SDS011;4151;51.110;7.020;2022-10-04T18:57:41;7.53;;;4.90;;
8219;SDS011;4151;51.110;7.020;2022-10-04T19:00:32;7.67;;;5.40;;
8219;SDS011;4151;51.110;7.020;2022-10-04T19:03:37;21.20;;;9.30;;
8219;SDS011;4151;51.110;7.020;2022-10-04T19:06:27;7.03;;;5.47;;
8219;SDS011;4151;51.110;7.020;2022-10-04T19:09:15;7.27;;;4.17;;
8219;SDS011;4151;51.110;7.020;2022-10-04T19:11:48;8.63;;;4.33;;
8219;SDS011;4151;51.110;7.020;2022-10-04T19:14:24;12.37;;;6.07;;
8219;SDS011;4151;51.110;7.020;2022-10-04T19:16:59;10.13;;;5.13;;
8219;SDS011;4151;51.110;7.020;2022-10-04T19:27:44;6.70;;;4.47;;
8219;SDS011;4151;51.110;7.020;2022-10-04T19:38:16;12.13;;;5.43;;
8219;SDS011;4151;51.110;7.020;2022-10-04T19:41:03;8.13;;;5.10;;
8219;SDS011;4151;51.110;7.020;2022-10-04T19:43:46;18.53;;;6.10;;
8219;SDS011;4151;51.110;7.020;2022-10-04T19:46:35;11.90;;;5.67;;
8219;SDS011;4151;51.110;7.020;2022-10-04T19:49:42;10.23;;;5.97;;
8219;SDS011;4151;51.110;7.020;2022-10-04T19:57:50;11.50;;;5.20;;
8219;SDS011;4151;51.110;7.020;2022-10-04T20:00:38;11.77;;;5.40;;
8219;SDS011;4151;51.110;7.020;2022-10-04T20:03:08;12.47;;;5.03;;
8219;SDS011;4151;51.110;7.020;2022-10-04T20:05:40;6.27;;;4.07;;
8219;SDS011;4151;51.110;7.020;2022-10-04T20:08:08;13.47;;;4.40;;
8219;SDS011;4151;51.110;7.020;2022-10-04T20:10:36;10.10;;;4.60;;
8219;SDS011;4151;51.110;7.020;2022-10-04T20:26:02;8.50;;;4.00;;
8219;SDS011;4151;51.110;7.020;2022-10-04T20:32:00;8.23;;;4.50;;
8219;SDS011;4151;51.110;7.020;2022-10-04T20:34:46;6.67;;;4.80;;
8219;SDS011;4151;51.110;7.020;2022-10-04T20:37:13;9.23;;;4.13;;
8219;SDS011;4151;51.110;7.020;2022-10-04T20:42:25;6.33;;;4.40;;
8219;SDS011;4151;51.110;7.020;2022-10-04T20:50:03;7.93;;;4.33;;
8219;SDS011;4151;51.110;7.020;2022-10-04T20:52:36;18.20;;;5.00;;
8219;SDS011;4151;51.110;7.020;2022-10-04T20:55:11;11.63;;;4.03;;
8219;SDS011;4151;51.110;7.020;2022-10-04T20:57:44;5.53;;;3.97;;
8219;SDS011;4151;51.110;7.020;2022-10-04T21:00:20;5.80;;;4.20;;
8219;SDS011;4151;51.110;7.020;2022-10-04T21:02:48;9.03;;;4.80;;
8219;SDS011;4151;51.110;7.020;2022-10-04T21:05:16;7.50;;;4.77;;
8219;SDS011;4151;51.110;7.020;2022-10-04T21:07:48;10.67;;;4.50;;
8219;SDS011;4151;51.110;7.020;2022-10-04T21:10:33;10.77;;;4.40;;
8219;SDS011;4151;51.110;7.020;2022-10-04T21:12:59;8.17;;;4.90;;
8219;SDS011;4151;51.110;7.020;2022-10-04T21:15:25;5.73;;;4.60;;
8219;SDS011;4151;51.110;7.020;2022-10-04T21:18:01;12.20;;;4.83;;
8219;SDS011;4151;51.110;7.020;2022-10-04T21:20:42;9.37;;;4.77;;
8219;SDS011;4151;51.110;7.020;2022-10-04T21:23:15;12.03;;;4.90;;
8219;SDS011;4151;51.110;7.020;2022-10-04T21:25:53;8.50;;;4.50;;
8219;SDS011;4151;51.110;7.020;2022-10-04T21:28:42;9.20;;;5.30;;
8219;SDS011;4151;51.110;7.020;2022-10-04T21:31:07;8.30;;;4.67;;
8219;SDS011;4151;51.110;7.020;2022-10-04T21:33:33;12.17;;;4.97;;
8219;SDS011;4151;51.110;7.020;2022-10-04T21:36:00;15.40;;;5.13;;
8219;SDS011;4151;51.110;7.020;2022-10-04T21:38:26;11.63;;;4.77;;
8219;SDS011;4151;51.110;7.020;2022-10-04T21:40:52;11.60;;;4.83;;
8219;SDS011;4151;51.110;7.020;2022-10-04T21:43:18;9.17;;;4.67;;
8219;SDS011;4151;51.110;7.020;2022-10-04T21:45:44;8.80;;;5.40;;
8219;SDS011;4151;51.110;7.020;2022-10-04T21:48:09;12.10;;;4.93;;
8219;SDS011;4151;51.110;7.020;2022-10-04T21:50:35;12.40;;;5.03;;
8219;SDS011;4151;51.110;7.020;2022-10-04T21:53:00;9.30;;;5.60;;
8219;SDS011;4151;51.110;7.020;2022-10-04T21:55:26;10.63;;;5.60;;
8219;SDS011;4151;51.110;7.020;2022-10-04T21:57:51;8.23;;;5.33;;
8219;SDS011;4151;51.110;7.020;2022-10-04T22:00:17;8.07;;;4.90;;
8219;SDS011;4151;51.110;7.020;2022-10-04T22:02:43;8.13;;;4.57;;
8219;SDS011;4151;51.110;7.020;2022-10-04T22:05:08;8.63;;;4.77;;
8219;SDS011;4151;51.110;7.020;2022-10-04T22:07:34;10.53;;;4.50;;
8219;SDS011;4151;51.110;7.020;2022-10-04T22:09:59;8.10;;;5.03;;
8219;SDS011;4151;51.110;7.020;2022-10-04T22:12:25;7.47;;;4.77;;
8219;SDS011;4151;51.110;7.020;2022-10-04T22:14:50;14.50;;;5.33;;
8219;SDS011;4151;51.110;7.020;2022-10-04T22:17:16;21.20;;;5.60;;
8219;SDS011;4151;51.110;7.020;2022-10-04T22:19:42;8.50;;;4.97;;
8219;SDS011;4151;51.110;7.020;2022-10-04T22:22:12;10.20;;;5.30;;
8219;SDS011;4151;51.110;7.020;2022-10-04T22:24:41;11.43;;;4.80;;
8219;SDS011;4151;51.110;7.020;2022-10-04T22:27:12;8.03;;;4.80;;
8219;SDS011;4151;51.110;7.020;2022-10-04T22:29:42;9.87;;;5.87;;
8219;SDS011;4151;51.110;7.020;2022-10-04T22:32:12;11.83;;;5.47;;
8219;SDS011;4151;51.110;7.020;2022-10-04T22:34:49;13.90;;;5.63;;
8219;SDS011;4151;51.110;7.020;2022-10-04T22:37:16;19.73;;;5.60;;
8219;SDS011;4151;51.110;7.020;2022-10-04T22:39:46;9.27;;;4.87;;
8219;SDS011;4151;51.110;7.020;2022-10-04T22:42:11;10.67;;;5.53;;
8219;SDS011;4151;51.110;7.020;2022-10-04T22:44:38;7.60;;;5.00;;
8219;SDS011;4151;51.110;7.020;2022-10-04T22:47:08;8.77;;;5.33;;
8219;SDS011;4151;51.110;7.020;2022-10-04T22:49:38;14.33;;;5.60;;
8219;SDS011;4151;51.110;7.020;2022-10-04T22:52:40;8.70;;;4.80;;
8219;SDS011;4151;51.110;7.020;2022-10-04T22:54:59;11.23;;;5.23;;
8219;SDS011;4151;51.110;7.020;2022-10-04T22:57:26;10.13;;;6.50;;
8219;SDS011;4151;51.110;7.020;2022-10-04T22:59:53;9.20;;;5.60;;
8219;SDS011;4151;51.110;7.020;2022-10-04T23:02:20;15.67;;;4.43;;
8219;SDS011;4151;51.110;7.020;2022-10-04T23:05:00;14.27;;;5.90;;
8219;SDS011;4151;51.110;7.020;2022-10-04T23:07:37;9.80;;;5.60;;
8219;SDS011;4151;51.110;7.020;2022-10-04T23:10:03;10.90;;;6.70;;
8219;SDS011;4151;51.110;7.020;2022-10-04T23:12:29;15.40;;;5.70;;
8219;SDS011;4151;51.110;7.020;2022-10-04T23:14:55;8.67;;;6.10;;
8219;SDS011;4151;51.110;7.020;2022-10-04T23:17:27;11.60;;;5.97;;
8219;SDS011;4151;51.110;7.020;2022-10-04T23:19:56;10.37;;;5.70;;
8219;SDS011;4151;51.110;7.020;2022-10-04T23:22:25;12.67;;;6.07;;
8219;SDS011;4151;51.110;7.020;2022-10-04T23:24:52;10.07;;;5.20;;
8219;SDS011;4151;51.110;7.020;2022-10-04T23:27:19;13.90;;;5.50;;
8219;SDS011;4151;51.110;7.020;2022-10-04T23:29:45;11.33;;;6.40;;
8219;SDS011;4151;51.110;7.020;2022-10-04T23:32:13;12.27;;;6.70;;
8219;SDS011;4151;51.110;7.020;2022-10-04T23:34:41;9.27;;;6.03;;
8219;SDS011;4151;51.110;7.020;2022-10-04T23:37:15;8.43;;;5.90;;
8219;SDS011;4151;51.110;7.020;2022-10-04T23:39:43;10.97;;;5.70;;
8219;SDS011;4151;51.110;7.020;2022-10-04T23:42:20;9.60;;;5.50;;
8219;SDS011;4151;51.110;7.020;2022-10-04T23:44:52;10.30;;;5.07;;
8219;SDS011;4151;51.110;7.020;2022-10-04T23:47:19;17.17;;;6.07;;
8219;SDS011;4151;51.110;7.020;2022-10-04T23:49:47;7.30;;;5.10;;
8219;SDS011;4151;51.110;7.020;2022-10-04T23:52:18;10.80;;;5.67;;
8219;SDS011;4151;51.110;7.020;2022-10-04T23:54:48;9.87;;;5.90;;
8219;SDS011;4151;51.110;7.020;2022-10-04T23:57:25;12.47;;;5.50;;
8219;SDS011;4151;51.110;7.020;2022-10-04T23:59:53;14.43;;;5.63;;
